Time;durP1;ratioP1;P1;durP2;ratioP2;P2;SDS_P1;SDS_P2;PMS_P1;PMS_P2;Temp;Humidity;BMP_temperature;BMP_pressure;BME280_temperature;BME280_humidity;BME280_pressure;Samples;Min_cycle;Max_cycle;Signal;HPM_P1;HPM_P2
2022/08/25 00:02:25;;;;;;;11.90;6.53;;;;;;;21.63;100.00;99859.09;4484487;31;34258;-77
2022/08/25 00:05:12;;;;;;;15.05;6.65;;;;;;;21.82;100.00;99855.31;4467510;31;35416;-77
2022/08/25 00:08:01;;;;;;;18.60;6.90;;;;;;;22.00;100.00;99855.50;4474470;31;36649;-77
2022/08/25 00:10:48;;;;;;;12.60;7.12;;;;;;;21.73;100.00;99846.44;4476174;31;34656;-77
2022/08/25 00:13:52;;;;;;;19.95;7.62;;;;;;;21.23;100.00;99852.19;4488371;31;34704;-77
2022/08/25 00:16:39;;;;;;;12.18;6.68;;;;;;;21.05;100.00;99851.94;4479632;31;35097;-77
2022/08/25 00:19:30;;;;;;;14.48;7.45;;;;;;;21.26;100.00;99853.38;4477626;31;33833;-77
2022/08/25 00:22:17;;;;;;;;;;;;;;;21.29;100.00;99858.25;4480607;31;34245;-77
2022/08/25 00:25:03;;;;;;;16.62;7.30;;;;;;;20.40;100.00;99850.09;4490009;31;33811;-77
2022/08/25 00:27:50;;;;;;;11.02;6.47;;;;;;;20.50;100.00;99845.09;4481886;31;33668;-77
2022/08/25 00:30:37;;;;;;;13.73;6.72;;;;;;;21.47;100.00;99848.13;4476822;31;35895;-77
2022/08/25 00:33:25;;;;;;;11.38;6.20;;;;;;;21.69;100.00;99848.41;4473712;31;34195;-77
2022/08/25 00:36:11;;;;;;;10.77;6.45;;;;;;;21.55;100.00;99847.03;4476636;31;33901;-77
2022/08/25 00:38:58;;;;;;;14.18;6.32;;;;;;;21.48;100.00;99846.16;4486235;31;35604;-77
2022/08/25 00:41:44;;;;;;;15.63;6.57;;;;;;;21.38;100.00;99839.28;4486691;31;35910;-77
2022/08/25 00:44:32;;;;;;;12.50;6.90;;;;;;;21.34;100.00;99838.38;4467768;31;34606;-77
2022/08/25 00:47:18;;;;;;;10.75;6.22;;;;;;;21.44;100.00;99840.53;4477085;31;34405;-77
2022/08/25 00:50:07;;;;;;;14.07;6.32;;;;;;;21.45;100.00;99842.13;4474928;31;34339;-77
2022/08/25 00:52:55;;;;;;;11.70;6.57;;;;;;;21.44;100.00;99842.53;4477048;31;34388;-77
2022/08/25 00:55:42;;;;;;;15.50;7.15;;;;;;;20.94;100.00;99844.59;4472588;31;34193;-77
2022/08/25 00:58:30;;;;;;;16.45;7.03;;;;;;;20.90;100.00;99852.91;4491365;31;33743;-77
2022/08/25 01:01:16;;;;;;;14.07;6.75;;;;;;;20.87;100.00;99848.09;4470468;31;34595;-77
2022/08/25 01:04:03;;;;;;;11.18;6.57;;;;;;;21.01;100.00;99847.50;4475398;31;35016;-77
2022/08/25 01:06:50;;;;;;;14.63;7.10;;;;;;;20.40;100.00;99827.03;4483724;31;34629;-77
2022/08/25 01:09:38;;;;;;;14.95;6.97;;;;;;;20.18;100.00;99837.03;4485278;31;34153;-77
2022/08/25 01:12:27;;;;;;;16.52;7.22;;;;;;;20.57;100.00;99836.88;4493008;31;36183;-77
2022/08/25 01:15:13;;;;;;;14.70;7.80;;;;;;;20.36;100.00;99837.31;4470649;31;36086;-77
2022/08/25 01:18:00;;;;;;;12.35;6.53;;;;;;;19.92;100.00;99834.94;4478773;31;35456;-77
2022/08/25 01:20:49;;;;;;;11.30;6.90;;;;;;;20.91;100.00;99840.59;4463505;31;33760;-77
2022/08/25 01:23:36;;;;;;;14.23;6.78;;;;;;;21.20;100.00;99840.97;4479609;31;34602;-77
2022/08/25 01:26:28;;;;;;;13.62;6.00;;;;;;;21.30;100.00;99840.31;4482883;31;35941;-77
2022/08/25 01:29:24;;;;;;;15.10;6.43;;;;;;;21.20;100.00;99840.97;4491718;31;34667;-77
2022/08/25 01:32:12;;;;;;;11.65;6.00;;;;;;;21.15;100.00;99838.53;4485686;31;34167;-77
2022/08/25 01:34:59;;;;;;;14.57;6.50;;;;;;;21.01;100.00;99839.94;4465094;31;35516;-77
2022/08/25 01:37:47;;;;;;;15.70;6.00;;;;;;;20.83;100.00;99833.28;4477382;31;34912;-77
2022/08/25 01:40:34;;;;;;;10.52;5.97;;;;;;;20.62;100.00;99834.59;4479193;31;34547;-77
2022/08/25 01:43:30;;;;;;;12.15;6.40;;;;;;;21.06;100.00;99830.44;4477046;31;32867;-77
2022/08/25 01:46:16;;;;;;;16.60;6.85;;;;;;;21.16;100.00;99834.56;4477920;31;34259;-77
2022/08/25 01:49:04;;;;;;;16.67;7.00;;;;;;;20.84;100.00;99840.50;4473292;31;36092;-77
2022/08/25 01:52:00;;;;;;;13.82;6.80;;;;;;;20.70;100.00;99834.72;4466098;31;34464;-77
2022/08/25 01:54:46;;;;;;;12.48;6.75;;;;;;;20.56;100.00;99836.09;4474395;31;34142;-77
2022/08/25 01:57:32;;;;;;;14.60;6.87;;;;;;;21.02;100.00;99835.97;4488719;31;36288;-77
2022/08/25 02:00:20;;;;;;;14.57;6.57;;;;;;;21.06;100.00;99836.84;4474979;31;34897;-77
2022/08/25 02:03:06;;;;;;;15.75;8.05;;;;;;;21.28;100.00;99832.31;4477195;31;35189;-77
2022/08/25 02:06:04;;;;;;;11.93;6.90;;;;;;;21.18;100.00;99837.78;4476905;31;34569;-77
2022/08/25 02:08:57;;;;;;;13.75;6.62;;;;;;;21.27;100.00;99827.94;4473447;31;34473;-77
2022/08/25 02:11:45;;;;;;;12.90;6.45;;;;;;;21.23;100.00;99835.47;4479941;31;34899;-77
2022/08/25 02:14:31;;;;;;;16.33;6.75;;;;;;;21.06;100.00;99834.06;4465344;31;34555;-77
2022/08/25 02:17:18;;;;;;;15.10;6.50;;;;;;;21.38;100.00;99822.53;4476283;31;34379;-77
2022/08/25 02:20:05;;;;;;;13.35;6.20;;;;;;;21.13;100.00;99827.75;4478998;31;34611;-77
2022/08/25 02:22:52;;;;;;;9.45;6.25;;;;;;;21.21;100.00;99823.09;4476336;31;34471;-77
2022/08/25 02:25:42;;;;;;;13.88;5.93;;;;;;;21.24;100.00;99822.34;4466118;31;34480;-77
2022/08/25 02:28:28;;;;;;;13.82;6.47;;;;;;;21.20;100.00;99818.69;4478304;31;33752;-77
2022/08/25 02:31:16;;;;;;;10.40;6.25;;;;;;;20.94;100.00;99823.13;4459346;31;35636;-77
2022/08/25 02:34:03;;;;;;;12.52;6.28;;;;;;;20.73;100.00;99828.38;4478443;31;33771;-77
2022/08/25 02:36:50;;;;;;;13.23;7.18;;;;;;;20.99;100.00;99820.00;4476903;31;33635;-77
2022/08/25 02:39:36;;;;;;;13.45;7.75;;;;;;;20.62;100.00;99820.66;4486138;31;34789;-77
2022/08/25 02:42:23;;;;;;;21.08;7.82;;;;;;;20.45;100.00;99816.41;4477140;31;35461;-77
2022/08/25 02:45:10;;;;;;;18.45;7.55;;;;;;;20.34;100.00;99818.19;4486618;31;35007;-77
2022/08/25 02:47:56;;;;;;;13.70;7.50;;;;;;;20.91;100.00;99823.88;4474792;31;35416;-77
2022/08/25 02:50:51;;;;;;;12.50;6.62;;;;;;;20.81;100.00;99818.97;4489379;31;32248;-78
2022/08/25 02:53:40;;;;;;;14.25;7.75;;;;;;;20.27;100.00;99812.53;4474112;31;34686;-77
2022/08/25 02:56:28;;;;;;;14.95;7.05;;;;;;;20.67;100.00;99814.78;4476904;31;34385;-77
2022/08/25 02:59:16;;;;;;;13.52;7.18;;;;;;;20.89;100.00;99817.91;4477703;31;33319;-77
2022/08/25 03:02:03;;;;;;;13.27;6.43;;;;;;;21.18;100.00;99821.06;4474775;31;34185;-77
2022/08/25 03:04:50;;;;;;;11.43;6.45;;;;;;;21.25;100.00;99813.59;4476689;31;35645;-77
2022/08/25 03:07:39;;;;;;;13.93;7.53;;;;;;;21.14;100.00;99811.84;4473738;31;34945;-77
2022/08/25 03:10:26;;;;;;;11.98;6.35;;;;;;;21.03;100.00;99817.25;4476285;31;34508;-77
2022/08/25 03:13:13;;;;;;;11.70;6.35;;;;;;;20.99;100.00;99817.22;4488799;31;35100;-77
2022/08/25 03:16:02;;;;;;;14.65;6.53;;;;;;;21.00;100.00;99821.59;4476726;31;34624;-77
2022/08/25 03:18:49;;;;;;;11.90;7.22;;;;;;;20.83;100.00;99819.38;4477777;31;36096;-77
2022/08/25 03:21:37;;;;;;;14.27;7.18;;;;;;;20.09;100.00;99811.41;4489028;31;34364;-77
2022/08/25 03:24:24;;;;;;;17.30;7.62;;;;;;;20.51;100.00;99811.31;4473613;31;35146;-77
2022/08/25 03:27:11;;;;;;;11.40;6.80;;;;;;;20.66;100.00;99813.19;4473779;31;34457;-76
2022/08/25 03:29:57;;;;;;;14.68;7.40;;;;;;;20.80;100.00;99812.56;4474604;31;34627;-77
2022/08/25 03:32:44;;;;;;;14.05;7.37;;;;;;;20.80;100.00;99815.34;4489036;31;34498;-78
2022/08/25 03:35:30;;;;;;;17.55;7.25;;;;;;;20.95;100.00;99821.97;4465892;31;35007;-77
2022/08/25 03:38:18;;;;;;;13.57;6.93;;;;;;;20.81;100.00;99822.56;4462886;31;34223;-77
2022/08/25 03:41:20;;;;;;;16.48;6.43;;;;;;;20.67;100.00;99814.78;4485902;31;36044;-77
2022/08/25 03:44:08;;;;;;;12.30;6.43;;;;;;;20.73;100.00;99818.06;4471490;31;35494;-77
2022/08/25 03:46:54;;;;;;;13.68;6.93;;;;;;;20.61;100.00;99819.06;4464272;31;34155;-76
2022/08/25 03:49:41;;;;;;;12.30;7.05;;;;;;;20.74;100.00;99818.84;4481886;31;35444;-77
2022/08/25 03:52:27;;;;;;;10.98;6.35;;;;;;;20.70;100.00;99815.22;4490388;31;34897;-77
2022/08/25 03:55:13;;;;;;;12.82;7.30;;;;;;;20.48;100.00;99806.50;4472903;31;35144;-77
2022/08/25 03:58:00;;;;;;;14.10;7.30;;;;;;;20.59;100.00;99813.06;4468177;31;35616;-77
2022/08/25 04:00:46;;;;;;;13.10;7.40;;;;;;;20.76;100.00;99817.31;4486544;31;34639;-77
2022/08/25 04:03:32;;;;;;;14.02;7.25;;;;;;;20.77;100.00;99810.53;4481457;31;35012;-77
2022/08/25 04:06:20;;;;;;;13.02;7.45;;;;;;;20.72;100.00;99821.19;4480387;31;34557;-77
2022/08/25 04:09:08;;;;;;;15.30;7.40;;;;;;;20.72;100.00;99821.19;4491841;31;33824;-77
2022/08/25 04:11:54;;;;;;;11.40;7.55;;;;;;;20.65;100.00;99811.56;4486973;31;34281;-77
2022/08/25 04:14:41;;;;;;;16.23;8.32;;;;;;;20.61;100.00;99821.06;4475710;31;35952;-77
2022/08/25 04:17:27;;;;;;;18.60;8.48;;;;;;;20.76;100.00;99816.50;4480827;31;35498;-77
2022/08/25 04:20:14;;;;;;;13.65;8.10;;;;;;;20.84;100.00;99832.13;4476240;31;33801;-77
2022/08/25 04:23:00;;;;;;;16.70;8.63;;;;;;;20.83;100.00;99831.34;4488654;31;34675;-77
2022/08/25 04:25:46;;;;;;;17.75;8.32;;;;;;;20.47;100.00;99821.59;4480470;31;35641;-77
2022/08/25 04:28:33;;;;;;;16.33;8.55;;;;;;;20.23;100.00;99822.78;4476630;31;34501;-77
2022/08/25 04:31:20;;;;;;;14.45;8.25;;;;;;;20.66;100.00;99824.31;4483247;31;34131;-77
2022/08/25 04:34:07;;;;;;;20.27;9.10;;;;;;;20.84;100.00;99823.78;4477779;31;34251;-77
2022/08/25 04:37:13;;;;;;;19.12;9.70;;;;;;;20.26;100.00;99824.03;4496729;31;34974;-77
2022/08/25 04:40:00;;;;;;;13.95;9.40;;;;;;;20.00;100.00;99820.81;4469924;31;34633;-77
2022/08/25 04:42:47;;;;;;;14.48;9.38;;;;;;;20.65;100.00;99825.47;4479407;31;33709;-77
2022/08/25 04:45:38;;;;;;;15.93;9.10;;;;;;;20.96;100.00;99826.34;4490968;31;34623;-77
2022/08/25 04:48:25;;;;;;;;;;;;;;;20.21;100.00;99819.59;4475468;31;35060;-81
2022/08/25 04:51:14;;;;;;;17.80;9.43;;;;;;;20.34;100.00;99818.19;4475740;31;35673;-82
2022/08/25 04:54:04;;;;;;;12.15;8.77;;;;;;;20.70;100.00;99818.00;4465205;31;35150;-82
2022/08/25 04:56:51;;;;;;;16.23;8.18;;;;;;;21.04;100.00;99821.69;4468450;31;34622;-82
2022/08/25 04:59:39;;;;;;;13.70;8.82;;;;;;;21.19;100.00;99819.88;4488026;31;34320;-82
2022/08/25 05:02:26;;;;;;;18.83;10.00;;;;;;;20.95;100.00;99819.16;4479208;31;35457;-82
2022/08/25 05:05:13;;;;;;;20.95;10.73;;;;;;;20.97;100.00;99814.00;4475828;31;34245;-82
2022/08/25 05:07:59;;;;;;;15.43;9.52;;;;;;;20.57;100.00;99825.75;4466008;31;34523;-82
2022/08/25 05:10:45;;;;;;;16.70;10.07;;;;;;;20.80;100.00;99828.47;4488603;31;35078;-82
2022/08/25 05:13:33;;;;;;;14.13;8.93;;;;;;;21.00;100.00;99820.81;4475794;31;34549;-82
2022/08/25 05:16:21;;;;;;;22.08;10.02;;;;;;;21.28;100.00;99820.38;4475083;32;35141;-83
2022/08/25 05:19:08;;;;;;;14.50;9.27;;;;;;;21.62;100.00;99818.44;4476493;31;35540;-83
2022/08/25 05:21:54;;;;;;;15.57;9.80;;;;;;;21.81;100.00;99822.22;4474779;31;35913;-82
2022/08/25 05:24:43;;;;;;;21.30;10.38;;;;;;;21.79;100.00;99820.59;4464697;31;34674;-83
2022/08/25 05:27:29;;;;;;;19.45;10.02;;;;;;;21.92;100.00;99818.37;4475371;31;33822;-82
2022/08/25 05:30:15;;;;;;;14.32;9.80;;;;;;;21.67;100.00;99822.88;4480727;31;34745;-81
2022/08/25 05:33:02;;;;;;;15.95;10.63;;;;;;;21.72;100.00;99823.34;4483709;31;34883;-81
2022/08/25 05:35:49;;;;;;;23.87;10.82;;;;;;;21.65;100.00;99822.44;4479734;31;34508;-81
2022/08/25 05:38:36;;;;;;;16.27;9.38;;;;;;;22.08;100.00;99815.31;4474937;31;34224;-83
2022/08/25 05:41:27;;;;;;;17.60;10.27;;;;;;;22.38;100.00;99815.22;4463183;31;34599;-84
2022/08/25 05:44:14;;;;;;;;;;;;;;;22.47;100.00;99802.91;4473992;31;34219;-84
2022/08/25 05:47:06;;;;;;;;;;;;;;;22.65;100.00;99813.03;4463149;31;35736;-85
2022/08/25 05:49:52;;;;;;;17.27;9.88;;;;;;;22.34;100.00;99813.56;4484657;31;33643;-84
2022/08/25 05:52:38;;;;;;;16.50;10.73;;;;;;;22.32;100.00;99815.97;4466729;31;34278;-81
2022/08/25 05:55:25;;;;;;;21.30;11.65;;;;;;;21.97;100.00;99812.44;4466457;31;35035;-81
2022/08/25 05:58:11;;;;;;;18.08;10.23;;;;;;;20.85;100.00;99809.47;4484844;31;33741;-81
2022/08/25 06:02:39;;;;;;;17.33;9.55;;;;;;;21.34;100.00;99816.06;4487276;31;33787;-81
2022/08/25 06:04:06;;;;;;;16.65;8.70;;;;;;;21.00;100.00;99809.66;4474844;31;34635;-80
2022/08/25 06:06:53;;;;;;;16.20;8.45;;;;;;;21.03;100.00;99811.69;4472419;31;35025;-81
2022/08/25 06:09:40;;;;;;;19.40;8.90;;;;;;;22.18;100.00;99811.84;4471440;31;34199;-82
2022/08/25 06:12:27;;;;;;;17.75;9.10;;;;;;;22.65;100.00;99801.84;4462506;31;34067;-80
2022/08/25 06:15:16;;;;;;;14.05;8.88;;;;;;;22.73;100.00;99813.06;4486946;31;34301;-81
2022/08/25 06:18:02;;;;;;;23.73;9.02;;;;;;;22.82;100.00;99810.72;4473262;31;35861;-81
2022/08/25 06:20:49;;;;;;;15.60;8.55;;;;;;;22.10;100.00;99814.94;4471915;31;34573;-81
2022/08/25 06:23:36;;;;;;;14.25;7.93;;;;;;;21.77;100.00;99823.00;4461090;31;34184;-81
2022/08/25 06:26:22;;;;;;;15.02;8.30;;;;;;;21.83;100.00;99822.62;4461940;31;34066;-82
2022/08/25 06:29:09;;;;;;;14.43;8.60;;;;;;;22.69;100.00;99818.63;4460072;31;34886;-83
2022/08/25 06:31:55;;;;;;;17.27;7.93;;;;;;;23.08;100.00;99818.91;4485012;31;34632;-80
2022/08/25 06:34:42;;;;;;;21.83;8.43;;;;;;;22.50;100.00;99816.91;4463182;31;33965;-80
2022/08/25 06:37:28;;;;;;;15.27;8.32;;;;;;;22.62;100.00;99824.16;4472186;31;34590;-79
2022/08/25 06:40:15;;;;;;;14.57;7.60;;;;;;;22.33;100.00;99817.56;4479268;31;34798;-79
2022/08/25 06:43:05;;;;;;;11.38;7.47;;;;;;;23.59;100.00;99831.06;4468381;31;34590;-79
2022/08/25 06:45:51;;;;;;;14.13;7.30;;;;;;;23.96;100.00;99827.19;4463330;31;33797;-79
2022/08/25 06:48:38;;;;;;;14.05;7.10;;;;;;;23.91;100.00;99830.41;4487970;31;34731;-80
2022/08/25 06:51:26;;;;;;;13.57;7.00;;;;;;;24.45;100.00;99831.28;4480417;31;34847;-79
2022/08/25 06:54:13;;;;;;;11.18;5.45;;;;;;;24.08;100.00;99826.00;4469930;31;33815;-79
2022/08/25 06:56:59;;;;;;;11.50;6.18;;;;;;;24.56;100.00;99837.69;4470904;31;33785;-79
2022/08/25 06:59:46;;;;;;;9.65;5.95;;;;;;;24.55;100.00;99835.28;4473208;31;33502;-79
2022/08/25 07:02:38;;;;;;;11.15;5.50;;;;;;;23.89;100.00;99839.19;4471452;31;34577;-79
2022/08/25 07:05:24;;;;;;;10.75;5.25;;;;;;;24.57;98.67;99828.06;4473313;31;34582;-79
2022/08/25 07:08:27;;;;;;;10.98;6.12;;;;;;;24.91;97.75;99834.03;4474429;31;33906;-81
2022/08/25 07:11:15;;;;;;;14.05;5.97;;;;;;;25.25;100.00;99832.78;4463591;31;33975;-78
2022/08/25 07:14:04;;;;;;;12.10;5.97;;;;;;;25.72;97.68;99834.13;4486140;31;34899;-78
2022/08/25 07:16:50;;;;;;;16.30;7.12;;;;;;;25.19;97.51;99835.19;4485866;31;35425;-80
2022/08/25 07:19:36;;;;;;;14.00;6.72;;;;;;;25.75;100.00;99838.12;4459652;31;35062;-79
2022/08/25 07:22:23;;;;;;;14.40;6.97;;;;;;;25.88;100.00;99833.69;4485314;31;34608;-84
2022/08/25 07:25:10;;;;;;;10.40;6.00;;;;;;;26.07;99.12;99831.56;4477876;31;34867;-84
2022/08/25 07:27:57;;;;;;;14.65;7.20;;;;;;;26.07;98.10;99829.56;4477579;31;34689;-79
2022/08/25 07:30:44;;;;;;;14.40;6.87;;;;;;;26.35;96.28;99836.16;4475849;31;33360;-78
2022/08/25 07:33:37;;;;;;;11.20;6.18;;;;;;;26.52;97.45;99831.63;4472433;31;34233;-77
2022/08/25 07:36:24;;;;;;;17.00;7.03;;;;;;;25.64;92.54;99835.38;4471858;31;35461;-77
2022/08/25 07:39:10;;;;;;;15.52;7.12;;;;;;;25.50;94.23;99839.06;4487592;31;33799;-77
2022/08/25 07:41:57;;;;;;;15.02;6.30;;;;;;;26.04;93.54;99833.16;4473279;31;34588;-78
2022/08/25 07:44:43;;;;;;;14.18;7.80;;;;;;;25.62;92.04;99837.81;4474978;31;35461;-78
2022/08/25 07:47:30;;;;;;;12.48;6.65;;;;;;;26.21;91.71;99831.44;4486187;31;35950;-80
2022/08/25 07:50:17;;;;;;;15.68;6.40;;;;;;;26.50;91.40;99829.25;4484787;31;34393;-80
2022/08/25 07:53:04;;;;;;;16.67;7.12;;;;;;;26.82;90.79;99816.91;4486200;31;33787;-80
2022/08/25 07:55:51;;;;;;;12.43;5.97;;;;;;;27.32;82.99;99819.16;4466660;31;34154;-79
2022/08/25 07:58:39;;;;;;;11.38;5.53;;;;;;;27.23;86.42;99821.69;4464209;31;34903;-79
2022/08/25 08:01:25;;;;;;;15.15;5.00;;;;;;;27.54;81.83;99822.50;4473064;31;34359;-78
2022/08/25 08:04:12;;;;;;;12.60;5.37;;;;;;;27.66;78.71;99818.31;4469040;31;33525;-79
2022/08/25 08:07:01;;;;;;;11.18;4.72;;;;;;;27.73;78.00;99821.84;4486322;31;35141;-78
2022/08/25 08:09:48;;;;;;;13.02;5.20;;;;;;;27.67;80.15;99823.53;4472277;31;34970;-79
2022/08/25 08:12:51;;;;;;;13.82;5.10;;;;;;;27.97;75.42;99821.94;4465094;31;33143;-80
2022/08/25 08:15:41;;;;;;;6.40;4.12;;;;;;;27.73;77.58;99826.69;4465029;31;34194;-81
2022/08/25 08:18:28;;;;;;;9.17;4.73;;;;;;;27.98;75.05;99826.34;4473318;31;34610;-79
2022/08/25 08:21:16;;;;;;;8.63;4.57;;;;;;;28.49;72.00;99827.19;4480874;31;34780;-80
2022/08/25 08:24:05;;;;;;;10.20;4.80;;;;;;;28.30;74.91;99828.66;4476063;31;37462;-81
2022/08/25 08:27:11;;;;;;;10.52;4.45;;;;;;;28.15;72.47;99814.03;4473646;31;33690;-81
2022/08/25 08:29:58;;;;;;;10.48;4.18;;;;;;;27.56;75.22;99823.69;4466527;31;35654;-82
2022/08/25 08:32:44;;;;;;;10.77;4.32;;;;;;;28.27;72.76;99815.44;4486175;31;35591;-83
2022/08/25 08:35:58;;;;;;;10.70;4.15;;;;;;;28.73;74.90;99824.34;4478640;31;34825;-79
2022/08/25 08:38:51;;;;;;;8.63;4.05;;;;;;;28.69;72.54;99818.78;4472427;31;33346;-80
2022/08/25 08:42:17;;;;;;;9.80;4.25;;;;;;;28.68;70.26;99817.97;4472178;31;34368;-83
2022/08/25 08:45:25;;;;;;;8.05;3.87;;;;;;;28.79;71.68;99814.94;4474957;31;34533;-77
2022/08/25 08:48:24;;;;;;;8.35;4.25;;;;;;;28.62;69.04;99821.72;4485821;31;34331;-80
2022/08/25 08:51:25;;;;;;;9.45;3.87;;;;;;;28.56;70.76;99814.97;4476427;31;34740;-77
2022/08/25 08:54:23;;;;;;;8.85;4.05;;;;;;;29.00;68.38;99815.75;4477241;31;33951;-77
2022/08/25 08:57:15;;;;;;;9.85;3.95;;;;;;;29.80;59.07;99816.56;4469486;31;35945;-80
2022/08/25 09:00:04;;;;;;;9.35;4.03;;;;;;;29.41;61.11;99811.75;4472875;31;33047;-78
2022/08/25 09:03:04;;;;;;;9.38;4.12;;;;;;;29.41;64.09;99811.75;4476471;31;34117;-79
2022/08/25 09:05:54;;;;;;;8.27;4.65;;;;;;;28.27;61.89;99809.00;4475477;31;34162;-79
2022/08/25 09:08:43;;;;;;;8.23;4.12;;;;;;;27.39;67.24;99812.66;4476553;31;34690;-79
2022/08/25 09:11:37;;;;;;;8.07;4.65;;;;;;;28.19;64.20;99803.47;4473091;31;34307;-82
2022/08/25 09:14:55;;;;;;;9.25;4.20;;;;;;;28.06;66.72;99799.66;4474532;31;32185;-81
2022/08/25 09:18:08;;;;;;;9.45;4.75;;;;;;;27.93;65.89;99805.09;4488276;31;35227;-82
2022/08/25 09:21:11;;;;;;;8.20;4.10;;;;;;;29.32;63.87;99798.22;4473346;31;34942;-80
2022/08/25 09:24:33;;;;;;;10.60;4.10;;;;;;;29.69;61.67;99791.41;4473110;31;34319;-81
2022/08/25 09:27:38;;;;;;;9.27;4.53;;;;;;;30.15;61.19;99792.31;4480926;31;35011;-83
2022/08/25 09:30:26;;;;;;;6.70;3.62;;;;;;;29.42;58.83;99785.91;4481263;31;34599;-83
2022/08/25 09:33:19;;;;;;;10.50;4.22;;;;;;;29.95;57.45;99778.28;4476179;31;34590;-80
2022/08/25 09:36:06;;;;;;;10.32;4.30;;;;;;;30.29;58.93;99779.91;4486811;31;34585;-80
2022/08/25 09:38:54;;;;;;;6.80;3.92;;;;;;;30.36;55.96;99785.38;4475476;31;34160;-82
2022/08/25 09:41:48;;;;;;;12.37;4.25;;;;;;;30.30;54.93;99775.84;4467376;31;34491;-83
2022/08/25 09:44:42;;;;;;;7.25;3.78;;;;;;;30.18;55.14;99771.66;4466894;31;35963;-83
2022/08/25 09:47:28;;;;;;;6.93;3.83;;;;;;;30.56;56.25;99762.63;4466571;31;34985;-83
2022/08/25 09:50:18;;;;;;;8.15;4.00;;;;;;;30.42;59.66;99763.78;4483714;31;33873;-83
2022/08/25 09:53:15;;;;;;;10.05;4.10;;;;;;;30.84;57.17;99757.47;4467125;31;34647;-84
2022/08/25 09:56:06;;;;;;;8.82;3.75;;;;;;;29.68;58.54;99758.72;4471116;31;35938;-81
2022/08/25 09:58:53;;;;;;;6.97;4.07;;;;;;;30.77;55.63;99746.34;4477761;31;34205;-80
2022/08/25 10:01:58;;;;;;;8.23;3.60;;;;;;;30.82;52.57;99752.25;4488746;31;34157;-81
2022/08/25 10:04:44;;;;;;;6.03;4.22;;;;;;;31.57;49.47;99746.44;4480801;31;34591;-80
2022/08/25 10:07:35;;;;;;;8.18;3.40;;;;;;;30.26;52.12;99741.22;4479739;31;35880;-81
2022/08/25 10:10:32;;;;;;;9.00;3.78;;;;;;;30.96;53.54;99731.25;4480115;31;34664;-80
2022/08/25 10:13:21;;;;;;;8.25;3.80;;;;;;;31.26;54.21;99732.78;4470661;31;34720;-79
2022/08/25 10:16:31;;;;;;;7.95;3.92;;;;;;;31.51;47.75;99737.72;4495434;31;36013;-80
2022/08/25 10:19:21;;;;;;;8.32;3.65;;;;;;;32.51;48.23;99730.81;4467878;31;34987;-81
2022/08/25 10:22:11;;;;;;;6.30;3.95;;;;;;;32.30;44.63;99732.31;4493577;31;35583;-80
2022/08/25 10:24:58;;;;;;;7.22;3.67;;;;;;;32.44;44.27;99723.31;4480155;31;34689;-80
2022/08/25 10:28:08;;;;;;;9.68;3.80;;;;;;;32.52;47.78;99723.09;4469683;31;34539;-81
2022/08/25 10:31:09;;;;;;;6.62;3.60;;;;;;;32.64;44.48;99714.53;4485434;31;238766;-80
2022/08/25 10:34:35;;;;;;;8.20;3.47;;;;;;;32.84;43.16;99719.87;4491226;31;34696;-81
2022/08/25 10:37:48;;;;;;;8.35;3.78;;;;;;;32.53;42.31;99708.44;4483222;31;34061;-81
2022/08/25 10:41:26;;;;;;;8.88;3.72;;;;;;;32.63;43.06;99718.63;4489648;31;34828;-81
2022/08/25 10:47:52;;;;;;;7.15;3.87;;;;;;;31.97;43.36;99698.63;4490734;31;35460;-81
2022/08/25 10:50:46;;;;;;;10.50;4.15;;;;;;;31.95;45.15;99700.31;4478255;31;35015;-82
2022/08/25 10:54:03;;;;;;;9.68;3.67;;;;;;;31.92;44.32;99695.56;4472658;31;33664;-83
2022/08/25 10:56:57;;;;;;;8.48;3.97;;;;;;;32.10;43.85;99689.28;4485935;31;34982;-83
2022/08/25 10:59:47;;;;;;;7.43;4.30;;;;;;;32.80;40.69;99695.75;4463335;31;34616;-83
2022/08/25 11:02:59;;;;;;;9.80;3.75;;;;;;;32.18;41.68;99696.31;4483248;31;35140;-83
2022/08/25 11:05:54;;;;;;;7.97;3.83;;;;;;;32.03;43.70;99681.84;4466182;31;35203;-83
2022/08/25 11:08:51;;;;;;;6.47;3.70;;;;;;;32.95;39.20;99676.13;4474372;31;34174;-82
2022/08/25 11:11:46;;;;;;;9.55;3.75;;;;;;;33.67;38.55;99680.63;4482329;31;34945;-83
2022/08/25 11:14:45;;;;;;;9.15;3.80;;;;;;;31.19;44.95;99669.94;4464499;31;34683;-80
2022/08/25 11:18:08;;;;;;;7.35;3.80;;;;;;;32.53;42.46;99671.56;4473431;31;35499;-80
2022/08/25 11:21:13;;;;;;;7.97;3.90;;;;;;;32.45;41.78;99671.06;4477166;31;35018;-79
2022/08/25 11:24:21;;;;;;;10.87;4.50;;;;;;;32.64;41.53;99663.47;4475517;31;34635;-79
2022/08/25 11:27:14;;;;;;;6.28;4.03;;;;;;;31.44;43.39;99658.66;4475010;31;33774;-80
2022/08/25 11:30:07;;;;;;;11.25;3.60;;;;;;;32.17;41.45;99660.72;4475998;31;33563;-81
2022/08/25 11:32:54;;;;;;;8.00;4.07;;;;;;;33.34;38.79;99655.53;4453743;31;33318;-82
2022/08/25 11:35:52;;;;;;;6.22;3.85;;;;;;;32.72;39.60;99640.53;4455905;31;34228;-83
2022/08/25 11:38:56;;;;;;;9.30;4.22;;;;;;;31.89;41.26;99642.63;4470533;31;33564;-81
2022/08/25 11:42:06;;;;;;;8.73;4.07;;;;;;;31.39;42.17;99638.62;4481793;31;34620;-79
2022/08/25 11:45:21;;;;;;;9.60;4.15;;;;;;;32.55;39.09;99632.22;4460111;31;34802;-81
2022/08/25 11:48:10;;;;;;;6.68;4.15;;;;;;;32.68;39.26;99635.78;4469255;31;34383;-81
2022/08/25 11:51:10;;;;;;;7.80;4.15;;;;;;;33.08;38.84;99623.72;4486041;31;33876;-81
2022/08/25 11:54:29;;;;;;;7.28;4.10;;;;;;;33.20;38.98;99624.09;4464409;31;35634;-80
2022/08/25 11:57:17;;;;;;;10.48;4.30;;;;;;;33.38;37.59;99627.00;4465833;31;34905;-80
2022/08/25 12:00:15;;;;;;;9.32;4.25;;;;;;;32.95;39.71;99625.03;4473814;31;35902;-82
2022/08/25 12:03:35;;;;;;;6.32;3.55;;;;;;;33.79;37.01;99624.94;4473196;31;33967;-84
2022/08/25 12:06:29;;;;;;;6.87;4.20;;;;;;;34.74;35.46;99611.81;4486890;31;34725;-83
2022/08/25 12:09:18;;;;;;;9.57;3.80;;;;;;;34.96;34.89;99611.59;4473851;31;36643;-82
2022/08/25 12:12:27;;;;;;;9.40;4.12;;;;;;;35.84;33.39;99608.50;4475189;31;34787;-84
2022/08/25 12:15:23;;;;;;;8.48;3.67;;;;;;;35.99;34.24;99614.25;4463037;31;34937;-83
2022/08/25 12:18:19;;;;;;;11.12;4.53;;;;;;;36.43;31.86;99605.00;4477228;31;34187;-82
2022/08/25 12:21:06;;;;;;;11.18;4.30;;;;;;;34.31;33.80;99603.19;4474059;31;34900;-80
2022/08/25 12:24:12;;;;;;;7.97;4.28;;;;;;;34.96;35.14;99603.06;4484337;31;35085;-77
2022/08/25 12:27:01;;;;;;;10.82;4.62;;;;;;;34.93;35.00;99602.75;4475572;31;35158;-77
2022/08/25 12:30:09;;;;;;;10.65;4.72;;;;;;;33.79;35.60;99602.97;4487038;31;35538;-77
2022/08/25 12:33:14;;;;;;;10.10;4.18;;;;;;;32.12;43.04;99596.91;4476439;31;35454;-80
2022/08/25 12:36:04;;;;;;;9.73;4.60;;;;;;;33.56;38.87;99601.53;4482851;31;35544;-76
2022/08/25 12:38:51;;;;;;;8.23;4.62;;;;;;;32.89;41.46;99605.78;4473546;31;35044;-78
2022/08/25 12:41:53;;;;;;;9.15;4.75;;;;;;;32.33;42.38;99592.47;4466867;31;35543;-79
2022/08/25 12:44:41;;;;;;;9.68;4.43;;;;;;;33.50;40.63;99594.03;4478788;31;35042;-77
2022/08/25 12:47:32;;;;;;;9.25;4.80;;;;;;;33.59;39.70;99586.38;4476856;31;34698;-77
2022/08/25 12:50:31;;;;;;;6.40;4.37;;;;;;;33.29;40.61;99587.22;4468580;31;33828;-78
2022/08/25 12:53:37;;;;;;;13.88;4.68;;;;;;;33.91;37.56;99575.69;4484934;31;35492;-76
2022/08/25 12:56:37;;;;;;;9.68;4.55;;;;;;;33.97;38.43;99579.47;4480122;31;34981;-78
2022/08/25 12:59:35;;;;;;;12.07;4.78;;;;;;;33.52;39.80;99586.66;4468486;31;35427;-76
2022/08/25 13:02:31;;;;;;;8.63;4.32;;;;;;;34.43;36.02;99575.81;4480839;31;34126;-77
2022/08/25 13:05:24;;;;;;;8.00;4.60;;;;;;;33.73;39.55;99575.69;4489603;31;34707;-75
2022/08/25 13:08:26;;;;;;;11.75;4.20;;;;;;;31.62;44.57;99573.13;4465181;31;34278;-77
2022/08/25 13:11:39;;;;;;;9.07;4.20;;;;;;;31.22;47.99;99576.44;4489165;31;34348;-77
2022/08/25 13:14:32;;;;;;;9.02;4.70;;;;;;;31.80;46.51;99567.63;4473713;31;34173;-79
2022/08/25 13:17:31;;;;;;;6.50;4.28;;;;;;;31.88;45.46;99564.53;4499380;31;34712;-78
2022/08/25 13:20:24;;;;;;;9.45;4.40;;;;;;;31.91;46.21;99567.28;4461658;31;34918;-79
2022/08/25 13:23:11;;;;;;;8.35;4.32;;;;;;;31.29;47.02;99566.94;4486864;31;34664;-79